createdAt,value
2023-01-05T00:01:37.278Z,97696.39
2023-01-05T00:04:40.495Z,97686.06
2023-01-05T00:07:44.527Z,97684.66
2023-01-05T00:11:06.488Z,97686.61
2023-01-05T00:14:34.111Z,97675.82
2023-01-05T00:17:55.653Z,97674.89
2023-01-05T00:21:21.314Z,97670.43
2023-01-05T00:24:24.628Z,97668.08
2023-01-05T00:27:27.928Z,97664.48
2023-01-05T00:30:44.976Z,97657.63
2023-01-05T00:33:48.183Z,97648.85
2023-01-05T00:36:51.475Z,97642.67
2023-01-05T00:39:54.741Z,97641.35
2023-01-05T00:42:57.885Z,97651.36
2023-01-05T00:46:01.248Z,97650.89
2023-01-05T00:49:04.486Z,97650.20
2023-01-05T00:52:08.471Z,97648.55
2023-01-05T00:55:12.295Z,97640.30
2023-01-05T00:58:15.675Z,97642.87
2023-01-05T01:01:18.936Z,97633.03
2023-01-05T01:04:22.475Z,97614.58
2023-01-05T01:07:25.706Z,97616.54
2023-01-05T01:10:28.903Z,97612.55
2023-01-05T01:13:34.106Z,97614.11
2023-01-05T01:16:37.544Z,97613.72
2023-01-05T01:19:40.836Z,97606.68
2023-01-05T01:22:43.994Z,97604.58
2023-01-05T01:25:47.384Z,97588.38
2023-01-05T01:28:50.690Z,97583.92
2023-01-05T01:31:54.323Z,97587.38
2023-01-05T01:34:57.520Z,97580.09
2023-01-05T01:38:00.824Z,97577.21
2023-01-05T01:41:04.309Z,97575.64
2023-01-05T01:44:45.098Z,97563.52
2023-01-05T01:47:51.459Z,97556.57
2023-01-05T01:50:55.694Z,97554.84
2023-01-05T01:54:05.221Z,97553.13
2023-01-05T01:57:13.248Z,97547.49
2023-01-05T02:00:18.750Z,97550.46
2023-01-05T02:03:21.918Z,97542.25
2023-01-05T02:06:25.218Z,97530.77
2023-01-05T02:09:29.769Z,97522.87
2023-01-05T02:12:32.989Z,97515.83
2023-01-05T02:15:38.932Z,97514.97
2023-01-05T02:18:57.785Z,97509.40
2023-01-05T02:22:13.108Z,97507.45
2023-01-05T02:25:16.383Z,97506.35
2023-01-05T02:28:34.803Z,97506.91
2023-01-05T02:31:48.271Z,97512.36
2023-01-05T02:35:06.459Z,97516.04
2023-01-05T02:38:20.841Z,97512.50
2023-01-05T02:41:26.672Z,97507.11
2023-01-05T02:44:32.888Z,97508.13
2023-01-05T02:47:39.597Z,97499.29
2023-01-05T02:50:53.268Z,97499.82
2023-01-05T02:54:05.699Z,97507.64
2023-01-05T02:57:15.417Z,97503.58
2023-01-05T03:00:27.077Z,97509.98
2023-01-05T03:03:34.264Z,97503.80
2023-01-05T03:06:47.018Z,97496.23
2023-01-05T03:09:52.130Z,97494.43
2023-01-05T03:13:16.884Z,97493.17
2023-01-05T03:16:28.676Z,97482.36
2023-01-05T03:19:44.012Z,97480.81
2023-01-05T03:23:08.705Z,97476.20
2023-01-05T03:26:31.533Z,97472.67
2023-01-05T03:29:53.629Z,97463.61
2023-01-05T03:33:26.162Z,97462.59
2023-01-05T03:36:31.494Z,97464.61
2023-01-05T03:39:39.198Z,97465.48
2023-01-05T03:42:43.852Z,97464.93
2023-01-05T03:45:53.072Z,97469.80
2023-01-05T03:48:59.112Z,97466.26
2023-01-05T03:52:03.589Z,97461.56
2023-01-05T03:55:07.429Z,97455.94
2023-01-05T03:58:11.142Z,97457.80
2023-01-05T04:01:17.761Z,97463.43
2023-01-05T04:04:21.670Z,97468.59
2023-01-05T04:07:25.056Z,97469.45
2023-01-05T04:10:29.141Z,97471.95
2023-01-05T04:13:32.609Z,97468.90
2023-01-05T04:16:36.044Z,97463.83
2023-01-05T04:19:47.959Z,97453.09
2023-01-05T04:22:51.479Z,97444.25
2023-01-05T04:25:56.520Z,97442.77
2023-01-05T04:29:00.147Z,97438.70
2023-01-05T04:32:04.559Z,97440.42
2023-01-05T04:35:11.340Z,97446.60
2023-01-05T04:38:16.253Z,97446.52
2023-01-05T04:41:20.106Z,97444.48
2023-01-05T04:44:25.061Z,97443.63
2023-01-05T04:47:30.584Z,97442.99
2023-01-05T04:50:35.250Z,97442.13
2023-01-05T04:53:38.605Z,97443.23
2023-01-05T04:56:42.424Z,97443.23
2023-01-05T04:59:45.842Z,97433.84
2023-01-05T05:02:49.978Z,97437.42
2023-01-05T05:05:53.346Z,97433.59
2023-01-05T05:08:56.938Z,97435.77
2023-01-05T05:12:01.184Z,97433.58
2023-01-05T05:15:05.178Z,97430.52
2023-01-05T05:18:09.758Z,97435.14
2023-01-05T05:21:14.581Z,97429.48
2023-01-05T05:24:17.977Z,97438.02
2023-01-05T05:27:21.767Z,97431.98
2023-01-05T05:30:24.942Z,97425.48
2023-01-05T05:33:28.318Z,97420.41
2023-01-05T05:36:32.440Z,97415.16
2023-01-05T05:39:35.749Z,97422.27
2023-01-05T05:42:38.972Z,97417.73
2023-01-05T05:45:49.592Z,97418.04
2023-01-05T05:48:53.433Z,97421.57
2023-01-05T05:51:56.683Z,97422.73
2023-01-05T05:54:59.883Z,97429.85
2023-01-05T05:58:03.217Z,97427.26
2023-01-05T06:01:06.877Z,97420.77
2023-01-05T06:04:10.187Z,97418.11
2023-01-05T06:07:13.427Z,97418.48
2023-01-05T06:10:16.646Z,97416.67
2023-01-05T06:13:19.899Z,97412.61
2023-01-05T06:16:23.300Z,97420.19
2023-01-05T06:19:26.557Z,97446.56
2023-01-05T06:22:29.762Z,97487.27
2023-01-05T06:25:33.607Z,97504.73
2023-01-05T06:28:36.848Z,97496.70
2023-01-05T06:31:40.411Z,97496.09
2023-01-05T06:34:43.839Z,97505.02
2023-01-05T06:37:47.105Z,97505.66
2023-01-05T06:40:50.332Z,97506.46
2023-01-05T06:43:53.721Z,97508.04
2023-01-05T06:46:56.968Z,97506.24
2023-01-05T06:50:00.247Z,97507.50
2023-01-05T06:53:03.621Z,97503.36
2023-01-05T06:56:07.136Z,97504.06
2023-01-05T06:59:12.654Z,97507.27
2023-01-05T07:02:17.372Z,97512.05
2023-01-05T07:05:20.836Z,97515.33
2023-01-05T07:08:24.138Z,97511.98
2023-01-05T07:11:27.839Z,97512.68
2023-01-05T07:14:31.109Z,97512.60
2023-01-05T07:17:34.533Z,97518.70
2023-01-05T07:20:38.386Z,97526.14
2023-01-05T07:23:41.661Z,97533.73
2023-01-05T07:26:44.932Z,97538.58
2023-01-05T07:29:48.259Z,97542.33
2023-01-05T07:32:51.526Z,97540.99
2023-01-05T07:35:54.729Z,97538.23
2023-01-05T07:38:59.626Z,97537.01
2023-01-05T07:42:03.174Z,97531.07
2023-01-05T07:45:07.536Z,97529.74
2023-01-05T07:48:10.743Z,97537.09
2023-01-05T07:51:13.964Z,97540.07
2023-01-05T07:54:17.272Z,97546.23
2023-01-05T07:57:20.481Z,97546.94
2023-01-05T08:00:32.166Z,97542.41
2023-01-05T08:03:35.939Z,97539.83
2023-01-05T08:06:39.760Z,97538.89
2023-01-05T08:10:01.776Z,97531.30
2023-01-05T08:13:25.081Z,97527.62
2023-01-05T08:16:33.519Z,97537.55
2023-01-05T08:19:36.992Z,97541.14
2023-01-05T08:22:40.309Z,97536.13
2023-01-05T08:25:43.559Z,97540.04
2023-01-05T08:28:47.225Z,97540.20
2023-01-05T08:31:50.601Z,97540.28
2023-01-05T08:34:55.649Z,97539.64
2023-01-05T08:37:59.233Z,97544.55
2023-01-05T08:41:05.066Z,97545.58
2023-01-05T08:44:12.265Z,97541.04
2023-01-05T08:47:18.039Z,97541.66
2023-01-05T08:50:21.658Z,97545.09
2023-01-05T08:53:24.935Z,97546.19
2023-01-05T08:56:33.093Z,97548.20
2023-01-05T08:59:40.833Z,97548.20
2023-01-05T09:02:44.682Z,97546.78
2023-01-05T09:05:48.234Z,97548.96
2023-01-05T09:08:51.609Z,97553.50
2023-01-05T09:11:54.926Z,97558.42
2023-01-05T09:15:04.227Z,97558.02
2023-01-05T09:18:07.719Z,97559.43
2023-01-05T09:21:13.621Z,97560.44
2023-01-05T09:24:16.987Z,97559.50
2023-01-05T09:27:20.320Z,97558.25
2023-01-05T09:30:23.645Z,97557.84
2023-01-05T09:33:26.892Z,97555.02
2023-01-05T09:36:30.305Z,97552.48
2023-01-05T09:39:33.690Z,97549.74
2023-01-05T09:42:41.337Z,97547.70
2023-01-05T09:45:45.211Z,97540.27
2023-01-05T09:48:53.167Z,97534.61
2023-01-05T09:52:02.577Z,97532.50
2023-01-05T09:55:21.363Z,97538.34
2023-01-05T09:58:30.203Z,97533.09
2023-01-05T10:01:36.880Z,97534.80
2023-01-05T10:04:40.574Z,97529.46
2023-01-05T10:08:04.271Z,97530.16
2023-01-05T10:11:33.200Z,97532.66
2023-01-05T10:14:41.671Z,97532.80
2023-01-05T10:17:45.213Z,97528.80
2023-01-05T10:21:01.113Z,97529.50
2023-01-05T10:24:25.203Z,97526.38
2023-01-05T10:27:53.245Z,97527.39
2023-01-05T10:31:03.030Z,97523.84
2023-01-05T10:34:19.508Z,97520.30
2023-01-05T10:38:15.144Z,97518.80
2023-01-05T10:41:32.878Z,97514.32
2023-01-05T10:44:52.677Z,97515.80
2023-01-05T10:47:56.326Z,97505.92
2023-01-05T10:51:00.658Z,97503.11
2023-01-05T10:54:05.761Z,97508.72
2023-01-05T10:57:35.460Z,97505.89
2023-01-05T11:00:43.211Z,97508.15
2023-01-05T11:07:13.222Z,97512.52
2023-01-05T11:10:31.293Z,97511.66
2023-01-05T11:13:42.185Z,97506.10
2023-01-05T11:16:53.659Z,97515.30
2023-01-05T11:19:58.483Z,97524.93
2023-01-05T11:23:01.921Z,97525.95
2023-01-05T11:26:47.492Z,97523.00
2023-01-05T11:30:16.027Z,97525.52
2023-01-05T11:33:25.934Z,97532.64
2023-01-05T11:36:29.414Z,97551.31
2023-01-05T11:39:59.013Z,97543.42
2023-01-05T11:43:12.239Z,97536.20
2023-01-05T11:46:16.713Z,97525.23
2023-01-05T11:49:20.302Z,97535.99
2023-01-05T11:52:39.441Z,97549.17
2023-01-05T11:55:42.722Z,97546.05
2023-01-05T11:58:47.784Z,97531.89
2023-01-05T12:02:18.847Z,97531.19
2023-01-05T12:05:52.058Z,97529.31
2023-01-05T12:09:36.460Z,97520.20
2023-01-05T12:17:00.686Z,97509.70
2023-01-05T12:22:28.481Z,97501.13
2023-01-05T12:25:49.356Z,97497.15
2023-01-05T12:34:01.327Z,97501.61
2023-01-05T12:36:58.969Z,97528.61
2023-01-05T12:40:12.690Z,97565.39
2023-01-05T12:43:29.591Z,97593.94
2023-01-05T12:46:58.687Z,97587.77
2023-01-05T12:50:25.266Z,97580.96
2023-01-05T12:53:32.956Z,97574.51
2023-01-05T12:57:00.681Z,97578.44
2023-01-05T13:00:05.532Z,97579.08
2023-01-05T13:03:23.447Z,97583.36
2023-01-05T13:06:26.196Z,97595.31
2023-01-05T13:09:31.836Z,97613.91
2023-01-05T13:12:36.434Z,97626.40
2023-01-05T13:15:56.426Z,97624.98
2023-01-05T13:19:10.136Z,97622.41
2023-01-05T13:22:35.722Z,97622.09
2023-01-05T13:25:48.330Z,97605.22
2023-01-05T13:29:00.939Z,97605.75
2023-01-05T13:32:22.839Z,97605.59
2023-01-05T13:35:57.015Z,97604.04
2023-01-05T13:39:03.662Z,97605.20
2023-01-05T13:42:24.753Z,97607.79
2023-01-05T13:45:44.136Z,97608.17
2023-01-05T13:49:20.335Z,97605.06
2023-01-05T13:52:55.809Z,97602.09
2023-01-05T13:56:00.658Z,97611.70
2023-01-05T13:59:15.606Z,97620.92
2023-01-05T14:02:56.525Z,97629.29
2023-01-05T14:06:01.742Z,97618.27
2023-01-05T14:09:08.289Z,97629.39
2023-01-05T14:12:16.316Z,97629.63
2023-01-05T14:15:29.326Z,97629.00
2023-01-05T14:18:52.483Z,97635.25
2023-01-05T14:21:59.205Z,97628.85
2023-01-05T14:25:39.458Z,97634.71
2023-01-05T14:28:45.600Z,97623.14
2023-01-05T14:31:47.852Z,97617.31
2023-01-05T14:34:51.294Z,97602.85
2023-01-05T14:37:56.107Z,97608.55
2023-01-05T14:40:58.762Z,97608.31
2023-01-05T14:44:17.796Z,97612.70
2023-01-05T14:47:43.314Z,97611.22
2023-01-05T14:50:45.348Z,97623.50
2023-01-05T14:53:49.520Z,97629.75
2023-01-05T14:57:26.369Z,97635.21
2023-01-05T15:00:37.236Z,97631.86
2023-01-05T15:03:47.920Z,97639.52
2023-01-05T15:07:09.960Z,97638.98
2023-01-05T15:10:53.341Z,97639.69
2023-01-05T15:14:30.251Z,97641.32
2023-01-05T15:17:56.612Z,97649.46
2023-01-05T15:21:07.610Z,97651.58
2023-01-05T15:24:24.425Z,97657.75
2023-01-05T15:27:32.337Z,97661.18
2023-01-05T15:30:41.292Z,97662.98
2023-01-05T15:33:56.894Z,97667.92
2023-01-05T15:37:24.482Z,97669.48
2023-01-05T15:40:30.317Z,97668.93
2023-01-05T15:43:33.693Z,97667.84
2023-01-05T15:46:35.677Z,97677.30
2023-01-05T15:49:39.318Z,97680.83
2023-01-05T15:52:41.280Z,97692.70
2023-01-05T15:55:43.797Z,97704.36
2023-01-05T15:58:45.717Z,97710.15
2023-01-05T16:01:47.638Z,97708.10
2023-01-05T16:08:42.717Z,97713.65
2023-01-05T16:11:48.178Z,97713.02
2023-01-05T16:14:57.056Z,97716.90
2023-01-05T16:17:59.319Z,97720.48
2023-01-05T16:21:06.260Z,97727.33
2023-01-05T16:24:19.140Z,97733.89
2023-01-05T16:27:21.225Z,97740.05
2023-01-05T16:30:34.357Z,97742.71
2023-01-05T16:33:37.891Z,97745.37
2023-01-05T16:36:39.840Z,97749.98
2023-01-05T16:39:43.420Z,97761.78
2023-01-05T16:42:54.674Z,97767.41
2023-01-05T16:46:20.516Z,97765.15
2023-01-05T16:49:32.672Z,97773.11
2023-01-05T16:52:45.936Z,97778.90
2023-01-05T16:55:48.683Z,97789.30
2023-01-05T16:58:55.020Z,97791.25
2023-01-05T17:01:58.300Z,97794.30
2023-01-05T17:05:00.408Z,97796.73
2023-01-05T17:08:24.379Z,97798.52
2023-01-05T17:11:35.967Z,97800.95
2023-01-05T17:14:39.150Z,97810.88
2023-01-05T17:17:41.017Z,97817.91
2023-01-05T17:20:45.213Z,97820.66
2023-01-05T17:23:50.972Z,97818.69
2023-01-05T17:26:53.099Z,97824.72
2023-01-05T17:29:59.152Z,97820.33
2023-01-05T17:33:02.419Z,97820.88
2023-01-05T17:36:07.599Z,97831.52
2023-01-05T17:39:15.510Z,97836.75
2023-01-05T17:42:39.127Z,97840.95
2023-01-05T17:45:43.322Z,97846.81
2023-01-05T17:48:45.713Z,97846.42
2023-01-05T17:51:47.586Z,97852.69
2023-01-05T17:54:49.400Z,97857.38
2023-01-05T17:57:51.543Z,97860.04
2023-01-05T18:00:53.733Z,97863.86
2023-01-05T18:03:55.556Z,97867.84
2023-01-05T18:07:00.791Z,97868.00
2023-01-05T18:10:04.617Z,97875.19
2023-01-05T18:13:08.587Z,97884.09
2023-01-05T18:16:11.549Z,97893.09
2023-01-05T18:22:21.308Z,97905.11
2023-01-05T18:25:24.972Z,97906.52
2023-01-05T18:28:27.707Z,97914.40
2023-01-05T18:31:29.589Z,97919.71
2023-01-05T18:34:31.862Z,97923.77
2023-01-05T18:37:34.108Z,97929.22
2023-01-05T18:40:35.878Z,97932.25
2023-01-05T18:43:38.009Z,97937.39
2023-01-05T18:46:39.966Z,97945.27
2023-01-05T18:49:41.892Z,97954.33
2023-01-05T18:52:43.720Z,97966.60
2023-01-05T18:55:45.713Z,97966.52
2023-01-05T18:58:47.612Z,97975.44
2023-01-05T19:01:49.563Z,97983.30
2023-01-05T19:04:52.313Z,97985.70
2023-01-05T19:07:54.191Z,97994.73
2023-01-05T19:10:56.008Z,97995.60
2023-01-05T19:13:59.696Z,98000.02
2023-01-05T19:17:02.093Z,98007.29
2023-01-05T19:20:04.569Z,98016.11
2023-01-05T19:23:06.736Z,98013.91
2023-01-05T19:26:11.911Z,98023.25
2023-01-05T19:29:15.002Z,98030.48
2023-01-05T19:32:16.880Z,98037.46
2023-01-05T19:35:18.809Z,98047.91
2023-01-05T19:38:20.683Z,98056.11
2023-01-05T19:41:23.976Z,98063.76
2023-01-05T19:44:26.448Z,98069.24
2023-01-05T19:47:28.705Z,98079.87
2023-01-05T19:50:30.385Z,98087.38
2023-01-05T19:53:33.394Z,98100.77
2023-01-05T19:56:36.623Z,98106.45
2023-01-05T19:59:38.477Z,98120.70
2023-01-05T20:02:41.448Z,98128.91
2023-01-05T20:05:43.428Z,98138.48
2023-01-05T20:08:53.210Z,98143.42
2023-01-05T20:12:05.798Z,98147.30
2023-01-05T20:15:15.061Z,98153.73
2023-01-05T20:18:16.916Z,98162.38
2023-01-05T20:21:18.789Z,98160.54
2023-01-05T20:24:26.156Z,98161.60
2023-01-05T20:27:29.016Z,98160.14
2023-01-05T20:30:33.944Z,98163.83
2023-01-05T20:33:36.046Z,98168.40
2023-01-05T20:36:38.522Z,98176.79
2023-01-05T20:39:41.189Z,98177.02
2023-01-05T20:42:43.052Z,98181.94
2023-01-05T20:45:44.991Z,98180.96
2023-01-05T20:48:49.543Z,98194.02
2023-01-05T20:51:52.339Z,98190.07
2023-01-05T20:54:55.234Z,98193.25
2023-01-05T20:57:57.070Z,98198.77
2023-01-05T21:01:10.148Z,98205.17
2023-01-05T21:04:13.865Z,98206.73
2023-01-05T21:07:15.784Z,98208.12
2023-01-05T21:10:17.772Z,98210.57
2023-01-05T21:13:30.717Z,98214.26
2023-01-05T21:16:43.923Z,98214.39
2023-01-05T21:19:46.322Z,98215.09
2023-01-05T21:22:48.228Z,98215.05
2023-01-05T21:26:06.217Z,98223.08
2023-01-05T21:29:16.502Z,98227.20
2023-01-05T21:32:24.527Z,98231.28
2023-01-05T21:35:26.395Z,98239.93
2023-01-05T21:39:00.962Z,98242.27
2023-01-05T21:42:10.614Z,98250.04
2023-01-05T21:45:12.909Z,98257.51
2023-01-05T21:48:14.828Z,98273.42
2023-01-05T21:51:35.439Z,98282.20
2023-01-05T21:54:56.085Z,98283.60
2023-01-05T21:57:58.153Z,98287.35
2023-01-05T22:01:08.645Z,98291.77
2023-01-05T22:04:12.399Z,98294.40
2023-01-05T22:07:14.352Z,98295.91
2023-01-05T22:10:17.132Z,98299.98
2023-01-05T22:13:19.018Z,98304.89
2023-01-05T22:16:20.996Z,98307.04
2023-01-05T22:19:22.912Z,98313.39
2023-01-05T22:22:24.918Z,98315.50
2023-01-05T22:25:26.825Z,98317.58
2023-01-05T22:28:29.540Z,98324.51
2023-01-05T22:31:32.954Z,98328.92
2023-01-05T22:34:35.745Z,98335.64
2023-01-05T22:37:37.845Z,98338.52
2023-01-05T22:40:39.785Z,98343.23
2023-01-05T22:43:42.893Z,98340.86
2023-01-05T22:46:44.827Z,98346.37
2023-01-05T22:49:46.752Z,98352.05
2023-01-05T22:52:49.187Z,98359.69
2023-01-05T22:55:51.181Z,98361.17
2023-01-05T22:58:54.845Z,98360.98
2023-01-05T23:01:56.846Z,98366.52
2023-01-05T23:04:58.815Z,98370.02
2023-01-05T23:08:00.738Z,98375.15
2023-01-05T23:11:18.689Z,98388.84
2023-01-05T23:14:21.201Z,98393.67
2023-01-05T23:17:23.077Z,98401.41
2023-01-05T23:20:24.968Z,98413.23
2023-01-05T23:23:27.580Z,98419.83
2023-01-05T23:26:29.806Z,98416.82
2023-01-05T23:29:31.629Z,98419.55
2023-01-05T23:32:33.607Z,98424.09
2023-01-05T23:35:35.468Z,98433.04
2023-01-05T23:38:38.263Z,98434.87
2023-01-05T23:41:40.228Z,98440.93
2023-01-05T23:44:42.605Z,98443.36
2023-01-05T23:47:44.527Z,98445.34
2023-01-05T23:50:47.434Z,98447.58
2023-01-05T23:53:51.391Z,98457.23
2023-01-05T23:56:53.278Z,98455.83
2023-01-05T23:59:55.243Z,98458.77
